createdAt,value
2017-09-01T00:00:01.136Z,0
2017-09-01T00:01:10.464Z,0
2017-09-01T00:02:20.983Z,0
2017-09-01T00:03:31.262Z,0
2017-09-01T00:04:41.536Z,0
2017-09-01T00:05:51.797Z,0
2017-09-01T00:07:01.776Z,0
2017-09-01T00:08:11.658Z,0
2017-09-01T00:09:21.301Z,0
2017-09-01T00:10:31.621Z,0
2017-09-01T00:11:41.896Z,0
2017-09-01T00:12:52.152Z,0
2017-09-01T00:14:02.364Z,0
2017-09-01T00:15:12.670Z,0
2017-09-01T00:16:22.955Z,0
2017-09-01T00:17:33.222Z,0
2017-09-01T00:18:43.492Z,0
2017-09-01T00:19:53.710Z,0
2017-09-01T00:21:03.664Z,0
2017-09-01T00:22:13.629Z,0
2017-09-01T00:23:23.585Z,0
2017-09-01T00:24:33.888Z,0
2017-09-01T00:25:44.408Z,0
2017-09-01T00:26:54.688Z,0
2017-09-01T00:28:04.648Z,0
2017-09-01T00:29:14.700Z,0
2017-09-01T00:30:24.989Z,0
2017-09-01T00:31:35.504Z,0
2017-09-01T00:32:45.785Z,0
2017-09-01T00:33:55.735Z,0
2017-09-01T00:35:05.703Z,0
2017-09-01T00:36:15.991Z,0
2017-09-01T00:37:26.241Z,0
2017-09-01T00:38:36.512Z,0
2017-09-01T00:39:46.794Z,0
2017-09-01T00:40:57.083Z,0
2017-09-01T00:42:07.048Z,0
2017-09-01T00:43:17.614Z,0
2017-09-01T00:44:27.914Z,0
2017-09-01T00:45:37.548Z,0
2017-09-01T00:46:47.498Z,0
2017-09-01T00:47:57.471Z,0
2017-09-01T00:49:07.997Z,0
2017-09-01T00:50:17.936Z,0
2017-09-01T00:51:28.213Z,0
2017-09-01T00:52:38.503Z,0
2017-09-01T00:53:48.459Z,0
2017-09-01T00:54:58.968Z,0
2017-09-01T00:56:08.601Z,0
2017-09-01T00:57:18.881Z,0
2017-09-01T00:58:29.154Z,0
2017-09-01T00:59:38.793Z,0
2017-09-01T01:00:49.328Z,0
2017-09-01T01:01:59.654Z,0
2017-09-01T01:03:09.930Z,0
2017-09-01T01:04:20.230Z,0
2017-09-01T01:05:30.497Z,0
2017-09-01T01:06:40.705Z,0
2017-09-01T01:07:50.997Z,0
2017-09-01T01:09:00.957Z,0
2017-09-01T01:10:10.605Z,0
2017-09-01T01:11:20.881Z,0
2017-09-01T01:12:31.098Z,0
2017-09-01T01:13:41.405Z,0
2017-09-01T01:14:51.680Z,0
2017-09-01T01:16:01.957Z,0
2017-09-01T01:17:12.232Z,0
2017-09-01T01:18:22.436Z,0
2017-09-01T01:19:32.721Z,0
2017-09-01T01:20:43.018Z,0
2017-09-01T01:21:53.299Z,0
2017-09-01T01:23:03.277Z,0
2017-09-01T01:24:13.829Z,0
2017-09-01T01:25:24.098Z,0
2017-09-01T01:26:34.393Z,0
2017-09-01T01:27:44.674Z,0
2017-09-01T01:28:54.634Z,0
2017-09-01T01:30:04.877Z,0
2017-09-01T01:31:15.157Z,0
2017-09-01T01:32:25.106Z,0
2017-09-01T01:33:35.385Z,0
2017-09-01T01:34:45.337Z,0
2017-09-01T01:35:55.867Z,0
2017-09-01T01:37:05.811Z,0
2017-09-01T01:38:16.075Z,0
2017-09-01T01:39:26.355Z,0
2017-09-01T01:40:36.009Z,0
2017-09-01T01:41:46.529Z,0
2017-09-01T01:42:56.806Z,0
2017-09-01T01:44:07.082Z,0
2017-09-01T01:45:17.056Z,0
2017-09-01T01:46:27.336Z,0
2017-09-01T01:47:37.870Z,0
2017-09-01T01:48:47.836Z,0
2017-09-01T01:49:58.115Z,0
2017-09-01T01:51:08.384Z,0
2017-09-01T01:52:18.662Z,0
2017-09-01T01:53:29.206Z,0
2017-09-01T01:54:39.167Z,0
2017-09-01T01:55:49.445Z,0
2017-09-01T01:56:59.405Z,0
2017-09-01T01:58:09.665Z,0
2017-09-01T01:59:19.553Z,0
2017-09-01T02:00:29.835Z,0
2017-09-01T02:01:40.108Z,0
2017-09-01T02:02:50.069Z,0
2017-09-01T02:04:00.040Z,0
2017-09-01T02:05:10.564Z,0
2017-09-01T02:06:20.534Z,0
2017-09-01T02:07:30.818Z,0
2017-09-01T02:08:41.110Z,0
2017-09-01T02:09:51.379Z,0
2017-09-01T02:11:01.897Z,0
2017-09-01T02:12:11.858Z,0
2017-09-01T02:13:22.121Z,0
2017-09-01T02:14:32.069Z,0
2017-09-01T02:15:42.367Z,0
2017-09-01T02:16:52.577Z,0
2017-09-01T02:18:02.846Z,0
2017-09-01T02:19:13.122Z,0
2017-09-01T02:20:23.401Z,0
2017-09-01T02:21:33.681Z,0
2017-09-01T02:22:44.213Z,0
2017-09-01T02:23:54.494Z,0
2017-09-01T02:25:04.775Z,0
2017-09-01T02:26:14.734Z,0
2017-09-01T02:27:25.003Z,0
2017-09-01T02:28:35.221Z,0
2017-09-01T02:29:45.166Z,0
2017-09-01T02:30:55.452Z,0
2017-09-01T02:32:05.734Z,0
2017-09-01T02:33:16.019Z,0
2017-09-01T02:34:26.553Z,0
2017-09-01T02:35:36.522Z,0
2017-09-01T02:36:46.793Z,0
2017-09-01T02:37:57.071Z,0
2017-09-01T02:39:07.344Z,0
2017-09-01T02:40:17.872Z,0
2017-09-01T02:41:27.828Z,0
2017-09-01T02:42:38.111Z,0
2017-09-01T02:43:48.379Z,0
2017-09-01T02:44:58.637Z,0
2017-09-01T02:46:08.846Z,0
2017-09-01T02:47:19.101Z,0
2017-09-01T02:48:29.088Z,0
2017-09-01T02:49:39.374Z,0
2017-09-01T02:50:49.642Z,0
2017-09-01T02:52:00.192Z,0
2017-09-01T02:53:10.477Z,0
2017-09-01T02:54:20.427Z,0
2017-09-01T02:55:30.713Z,0
2017-09-01T02:56:41.006Z,0
2017-09-01T02:57:51.520Z,0
2017-09-01T02:59:01.787Z,0
2017-09-01T03:00:12.053Z,0
2017-09-01T03:01:22.022Z,0
2017-09-01T03:02:31.987Z,0
2017-09-01T03:03:42.504Z,0
2017-09-01T03:04:52.459Z,0
2017-09-01T03:06:02.418Z,0
2017-09-01T03:07:12.684Z,0
2017-09-01T03:08:22.650Z,0
2017-09-01T03:09:32.870Z,0
2017-09-01T03:10:43.159Z,0
2017-09-01T03:11:53.440Z,0
2017-09-01T03:13:03.400Z,0
2017-09-01T03:14:13.679Z,0
2017-09-01T03:15:23.892Z,0
2017-09-01T03:16:34.178Z,0
2017-09-01T03:17:44.146Z,0
2017-09-01T03:18:54.102Z,0
2017-09-01T03:20:04.063Z,0
2017-09-01T03:21:14.273Z,0
2017-09-01T03:22:24.275Z,0
2017-09-01T03:23:34.348Z,0
2017-09-01T03:24:44.626Z,0
2017-09-01T03:25:54.571Z,0
2017-09-01T03:27:05.146Z,0
2017-09-01T03:28:15.108Z,0
2017-09-01T03:29:25.063Z,0
2017-09-01T03:30:34.733Z,0
2017-09-01T03:31:44.375Z,0
2017-09-01T03:32:54.633Z,0
2017-09-01T03:34:04.594Z,0
2017-09-01T03:35:14.867Z,0
2017-09-01T03:36:25.136Z,0
2017-09-01T03:37:35.425Z,0
2017-09-01T03:38:45.943Z,0
2017-09-01T03:39:56.222Z,0
2017-09-01T03:41:06.500Z,0
2017-09-01T03:42:16.772Z,0
2017-09-01T03:43:26.117Z,0
2017-09-01T03:44:36.332Z,0
2017-09-01T03:45:46.291Z,0
2017-09-01T03:46:56.560Z,0
2017-09-01T03:48:06.852Z,0
2017-09-01T03:49:16.511Z,0
2017-09-01T03:50:26.732Z,0
2017-09-01T03:51:37.013Z,0
2017-09-01T03:52:47.286Z,0
2017-09-01T03:53:57.590Z,0
2017-09-01T03:55:07.015Z,0
2017-09-01T03:56:17.548Z,0
2017-09-01T03:57:27.501Z,0
2017-09-01T03:58:37.777Z,0
2017-09-01T03:59:48.039Z,0
2017-09-01T04:00:58.329Z,0
2017-09-01T04:02:08.840Z,0
2017-09-01T04:03:18.793Z,0
2017-09-01T04:04:29.069Z,0
2017-09-01T04:05:39.369Z,0
2017-09-01T04:06:49.637Z,0
2017-09-01T04:08:00.186Z,0
2017-09-01T04:09:10.463Z,0
2017-09-01T04:10:20.102Z,0
2017-09-01T04:11:30.384Z,0
2017-09-01T04:12:40.674Z,0
2017-09-01T04:13:51.215Z,5
2017-09-01T04:15:01.165Z,5
2017-09-01T04:16:11.120Z,5
2017-09-01T04:17:21.058Z,5
2017-09-01T04:18:31.336Z,5
2017-09-01T04:19:41.538Z,5
2017-09-01T04:20:51.807Z,10
2017-09-01T04:22:02.074Z,10
2017-09-01T04:23:11.708Z,10
2017-09-01T04:24:21.995Z,15
2017-09-01T04:25:32.256Z,15
2017-09-01T04:26:42.211Z,15
2017-09-01T04:27:52.161Z,20
2017-09-01T04:29:02.137Z,20
2017-09-01T04:30:12.111Z,20
2017-09-01T04:31:22.637Z,25
2017-09-01T04:32:32.908Z,25
2017-09-01T04:33:42.873Z,30
2017-09-01T04:34:52.850Z,30
2017-09-01T04:36:02.828Z,35
2017-09-01T04:37:13.349Z,35
2017-09-01T04:38:23.311Z,40
2017-09-01T04:39:33.585Z,40
2017-09-01T04:40:43.852Z,45
2017-09-01T04:41:53.794Z,45
2017-09-01T04:43:03.688Z,50
2017-09-01T04:44:13.345Z,50
2017-09-01T04:45:23.633Z,50
2017-09-01T04:46:33.897Z,50
2017-09-01T04:47:43.834Z,50
2017-09-01T04:48:53.739Z,55
2017-09-01T04:50:04.011Z,55
2017-09-01T04:51:13.975Z,55
2017-09-01T04:52:23.939Z,60
2017-09-01T04:53:34.231Z,65
2017-09-01T04:54:44.456Z,65
2017-09-01T04:55:54.736Z,70
2017-09-01T04:57:05.031Z,75
2017-09-01T04:58:15.310Z,80
2017-09-01T04:59:24.954Z,85
2017-09-01T05:00:35.502Z,85
2017-09-01T05:01:45.462Z,85
2017-09-01T05:02:55.113Z,85
2017-09-01T05:04:05.077Z,90
2017-09-01T05:05:15.350Z,90
2017-09-01T05:06:25.872Z,95
2017-09-01T05:07:36.123Z,95
2017-09-01T05:08:46.392Z,95
2017-09-01T05:09:56.671Z,100
2017-09-01T05:11:06.314Z,100
2017-09-01T05:12:16.851Z,100
2017-09-01T05:13:26.485Z,100
2017-09-01T05:14:36.769Z,100
2017-09-01T05:15:47.047Z,105
2017-09-01T05:16:57.334Z,110
2017-09-01T05:18:07.863Z,115
2017-09-01T05:19:17.827Z,115
2017-09-01T05:20:28.102Z,120
2017-09-01T05:21:38.369Z,125
2017-09-01T05:22:48.348Z,125
2017-09-01T05:23:58.912Z,125
2017-09-01T05:25:09.199Z,125
2017-09-01T05:26:19.168Z,130
2017-09-01T05:27:28.827Z,130
2017-09-01T05:28:39.096Z,135
2017-09-01T05:29:48.983Z,135
2017-09-01T05:30:59.269Z,140
2017-09-01T05:32:09.232Z,145
2017-09-01T05:33:19.187Z,145
2017-09-01T05:34:28.838Z,145
2017-09-01T05:35:39.364Z,145
2017-09-01T05:36:49.322Z,145
2017-09-01T05:37:59.293Z,145
2017-09-01T05:39:09.562Z,150
2017-09-01T05:40:19.866Z,150
2017-09-01T05:41:30.398Z,155
2017-09-01T05:42:40.680Z,165
2017-09-01T05:43:50.635Z,165
2017-09-01T05:45:00.588Z,175
2017-09-01T05:46:10.865Z,180
2017-09-01T05:47:21.474Z,185
2017-09-01T05:48:31.740Z,190
2017-09-01T05:49:41.696Z,190
2017-09-01T05:50:51.991Z,190
2017-09-01T05:52:01.949Z,195
2017-09-01T05:53:12.477Z,195
2017-09-01T05:54:22.758Z,195
2017-09-01T05:55:33.081Z,200
2017-09-01T05:56:43.042Z,200
2017-09-01T05:57:53.018Z,200
2017-09-01T05:59:03.546Z,205
2017-09-01T06:00:13.828Z,205
2017-09-01T06:01:24.122Z,210
2017-09-01T06:02:34.403Z,215
2017-09-01T06:03:44.689Z,220
2017-09-01T06:04:55.243Z,225
2017-09-01T06:06:05.519Z,230
2017-09-01T06:07:15.818Z,230
2017-09-01T06:08:26.112Z,235
2017-09-01T06:09:36.397Z,240
2017-09-01T06:10:46.947Z,240
2017-09-01T06:11:56.910Z,245
2017-09-01T06:13:06.871Z,245
2017-09-01T06:14:17.153Z,245
2017-09-01T06:15:27.421Z,250
2017-09-01T06:16:37.633Z,250
2017-09-01T06:17:47.906Z,250
2017-09-01T06:18:58.194Z,250
2017-09-01T06:20:08.180Z,250
2017-09-01T06:21:18.460Z,255
2017-09-01T06:22:28.673Z,255
2017-09-01T06:23:38.945Z,260
2017-09-01T06:24:48.932Z,270
2017-09-01T06:25:58.892Z,275
2017-09-01T06:27:09.167Z,275
2017-09-01T06:28:19.371Z,280
2017-09-01T06:29:29.660Z,285
2017-09-01T06:30:40.032Z,285
2017-09-01T06:31:50.419Z,295
2017-09-01T06:32:59.783Z,290
2017-09-01T06:34:10.323Z,300
2017-09-01T06:35:20.601Z,300
2017-09-01T06:36:30.619Z,305
2017-09-01T06:37:40.275Z,310
2017-09-01T06:38:50.274Z,310
2017-09-01T06:40:00.506Z,310
2017-09-01T06:41:10.818Z,315
2017-09-01T06:42:21.093Z,320
2017-09-01T06:43:31.105Z,325
2017-09-01T06:44:41.096Z,325
2017-09-01T06:45:51.629Z,335
2017-09-01T06:47:01.614Z,345
2017-09-01T06:48:11.898Z,350
2017-09-01T06:49:21.841Z,355
2017-09-01T06:50:32.425Z,365
2017-09-01T06:51:42.675Z,360
2017-09-01T06:52:52.956Z,350
2017-09-01T06:54:03.242Z,350
2017-09-01T06:55:13.213Z,360
2017-09-01T06:56:23.697Z,360
2017-09-01T06:57:34.237Z,365
2017-09-01T06:58:45.474Z,370
2017-09-01T06:59:55.442Z,380
2017-09-01T07:01:05.751Z,385
2017-09-01T07:02:15.407Z,390
2017-09-01T07:03:25.631Z,395
2017-09-01T07:04:35.272Z,405
2017-09-01T07:05:45.549Z,420
2017-09-01T07:06:55.818Z,440
2017-09-01T07:08:05.764Z,450
2017-09-01T07:09:15.984Z,460
2017-09-01T07:10:26.255Z,475
2017-09-01T07:11:36.537Z,485
2017-09-01T07:12:47.032Z,495
2017-09-01T07:13:57.322Z,505
2017-09-01T07:15:07.679Z,500
2017-09-01T07:16:18.188Z,500
2017-09-01T07:17:28.679Z,500
2017-09-01T07:18:38.967Z,500
2017-09-01T07:19:49.254Z,495
2017-09-01T07:20:59.475Z,495
2017-09-01T07:22:09.744Z,495
2017-09-01T07:23:20.012Z,495
2017-09-01T07:24:30.307Z,500
2017-09-01T07:25:39.976Z,510
2017-09-01T07:26:49.882Z,515
2017-09-01T07:27:59.842Z,525
2017-09-01T07:29:10.129Z,535
2017-09-01T07:30:20.112Z,550
2017-09-01T07:31:30.405Z,570
2017-09-01T07:32:40.937Z,590
2017-09-01T07:33:51.200Z,610
2017-09-01T07:35:01.481Z,620
2017-09-01T07:36:11.762Z,615
2017-09-01T07:37:22.043Z,610
2017-09-01T07:38:31.939Z,600
2017-09-01T07:39:41.902Z,580
2017-09-01T07:40:52.247Z,560
2017-09-01T07:42:02.212Z,560
2017-09-01T07:43:12.494Z,555
2017-09-01T07:44:23.044Z,555
2017-09-01T07:45:33.341Z,560
2017-09-01T07:46:43.631Z,565
2017-09-01T07:47:53.930Z,570
2017-09-01T07:49:04.206Z,580
2017-09-01T07:50:14.417Z,595
2017-09-01T07:51:24.694Z,605
2017-09-01T07:52:34.670Z,610
2017-09-01T07:53:44.953Z,625
2017-09-01T07:54:55.247Z,635
2017-09-01T07:56:05.480Z,660
2017-09-01T07:57:15.769Z,680
2017-09-01T07:58:25.744Z,695
2017-09-01T07:59:36.059Z,710
2017-09-01T08:00:46.030Z,720
2017-09-01T08:01:55.927Z,725
2017-09-01T08:03:05.562Z,730
2017-09-01T08:04:15.245Z,725
2017-09-01T08:05:25.594Z,725
2017-09-01T08:06:35.865Z,715
2017-09-01T08:07:46.075Z,700
2017-09-01T08:08:56.368Z,695
2017-09-01T08:10:06.347Z,685
2017-09-01T08:11:16.007Z,685
2017-09-01T08:12:26.308Z,685
2017-09-01T08:13:36.851Z,690
2017-09-01T08:14:47.127Z,705
2017-09-01T08:15:57.088Z,745
2017-09-01T08:17:07.393Z,785
2017-09-01T08:18:17.685Z,830
2017-09-01T08:19:28.265Z,1000
2017-09-01T08:20:38.534Z,885
2017-09-01T08:21:48.803Z,925
2017-09-01T08:22:59.093Z,865
2017-09-01T08:24:09.413Z,790
2017-09-01T08:25:19.953Z,925
2017-09-01T08:26:29.946Z,850
2017-09-01T08:27:39.957Z,800
2017-09-01T08:28:50.242Z,825
2017-09-01T08:29:59.889Z,780
2017-09-01T08:31:10.443Z,790
2017-09-01T08:32:20.422Z,715
2017-09-01T08:33:30.735Z,695
2017-09-01T08:34:40.713Z,710
2017-09-01T08:35:51.008Z,790
2017-09-01T08:37:01.243Z,760
2017-09-01T08:38:11.539Z,775
2017-09-01T08:39:21.824Z,760
2017-09-01T08:40:31.491Z,825
2017-09-01T08:41:41.798Z,835
2017-09-01T08:42:52.340Z,1100
2017-09-01T08:44:02.322Z,765
2017-09-01T08:45:12.620Z,795
2017-09-01T08:46:22.895Z,975
2017-09-01T08:47:33.187Z,920
2017-09-01T08:48:43.733Z,1235
2017-09-01T08:49:54.032Z,1250
2017-09-01T08:51:04.321Z,1410
2017-09-01T08:52:14.303Z,1145
2017-09-01T08:53:24.590Z,1575
2017-09-01T08:54:35.113Z,1610
2017-09-01T08:55:45.130Z,1500
2017-09-01T08:56:55.124Z,1270
2017-09-01T08:58:05.407Z,980
2017-09-01T08:59:15.368Z,1420
2017-09-01T09:00:25.601Z,1605
2017-09-01T09:01:35.576Z,1635
2017-09-01T09:02:45.607Z,1775
2017-09-01T09:03:55.919Z,1465
2017-09-01T09:05:06.232Z,1710
2017-09-01T09:06:16.765Z,1735
2017-09-01T09:07:27.072Z,945
2017-09-01T09:08:36.731Z,975
2017-09-01T09:09:47.020Z,1265
2017-09-01T09:10:57.320Z,880
2017-09-01T09:12:07.924Z,850
2017-09-01T09:13:18.232Z,800
2017-09-01T09:14:28.531Z,790
2017-09-01T09:15:38.519Z,790
2017-09-01T09:16:48.832Z,765
2017-09-01T09:17:59.047Z,785
2017-09-01T09:19:08.699Z,815
2017-09-01T09:20:18.995Z,790
2017-09-01T09:21:29.289Z,825
2017-09-01T09:22:39.567Z,850
2017-09-01T09:23:50.105Z,865
2017-09-01T09:25:00.070Z,875
2017-09-01T09:26:10.085Z,915
2017-09-01T09:27:20.053Z,960
2017-09-01T09:28:30.338Z,1115
2017-09-01T09:29:40.551Z,1260
2017-09-01T09:30:50.239Z,1135
2017-09-01T09:32:00.204Z,1235
2017-09-01T09:33:09.865Z,1175
2017-09-01T09:34:20.163Z,1185
2017-09-01T09:35:30.716Z,1255
2017-09-01T09:36:41.005Z,1265
2017-09-01T09:37:51.303Z,1415
2017-09-01T09:39:01.836Z,1800
2017-09-01T09:40:12.139Z,1265
2017-09-01T09:41:22.371Z,1245
2017-09-01T09:42:32.346Z,1330
2017-09-01T09:43:42.329Z,1320
2017-09-01T09:44:52.607Z,1085
2017-09-01T09:46:02.905Z,1060
2017-09-01T09:47:13.124Z,1030
2017-09-01T09:48:23.413Z,990
2017-09-01T09:49:33.695Z,975
2017-09-01T09:50:43.663Z,955
2017-09-01T09:51:53.651Z,985
2017-09-01T09:53:04.197Z,1055
2017-09-01T09:54:14.174Z,1135
2017-09-01T09:55:24.460Z,1225
2017-09-01T09:56:34.752Z,1145
2017-09-01T09:57:45.038Z,1130
2017-09-01T09:58:55.265Z,1105
2017-09-01T10:00:05.239Z,1240
2017-09-01T10:01:15.221Z,1155
2017-09-01T10:02:25.539Z,1205
2017-09-01T10:03:35.839Z,1125
2017-09-01T10:04:46.099Z,1365
2017-09-01T10:05:56.394Z,1245
2017-09-01T10:07:06.709Z,1235
2017-09-01T10:08:17.101Z,1355
2017-09-01T10:09:26.782Z,1270
2017-09-01T10:10:37.078Z,1225
2017-09-01T10:11:47.419Z,1265
2017-09-01T10:12:57.490Z,1505
2017-09-01T10:14:07.157Z,1380
2017-09-01T10:15:17.151Z,1530
2017-09-01T10:16:27.410Z,1345
2017-09-01T10:17:37.392Z,1350
2017-09-01T10:18:47.385Z,1440
2017-09-01T10:19:57.685Z,1330
2017-09-01T10:21:07.677Z,1685
2017-09-01T10:22:18.219Z,1310
2017-09-01T10:23:28.184Z,1165
2017-09-01T10:24:38.158Z,1180
2017-09-01T10:25:48.465Z,1480
2017-09-01T10:26:58.766Z,1580
2017-09-01T10:28:09.323Z,1575
2017-09-01T10:29:19.637Z,1500
2017-09-01T10:30:29.920Z,1380
2017-09-01T10:31:39.937Z,1220
2017-09-01T10:32:50.249Z,915
2017-09-01T10:34:00.159Z,765
2017-09-01T10:35:10.443Z,685
2017-09-01T10:36:20.735Z,620
2017-09-01T10:37:31.256Z,590
2017-09-01T10:38:41.765Z,570
2017-09-01T10:39:52.554Z,555
2017-09-01T10:41:02.186Z,535
2017-09-01T10:42:12.458Z,515
2017-09-01T10:43:22.742Z,485
2017-09-01T10:44:32.397Z,450
2017-09-01T10:45:42.974Z,425
2017-09-01T10:46:53.254Z,395
2017-09-01T10:48:03.537Z,375
2017-09-01T10:49:13.818Z,365
2017-09-01T10:50:23.475Z,365
2017-09-01T10:51:34.025Z,365
2017-09-01T10:52:44.335Z,365
2017-09-01T10:53:54.624Z,365
2017-09-01T10:55:04.604Z,370
2017-09-01T10:56:14.874Z,380
2017-09-01T10:57:24.819Z,385
2017-09-01T10:58:35.104Z,390
2017-09-01T10:59:45.393Z,400
2017-09-01T11:00:55.674Z,415
2017-09-01T11:02:05.990Z,430
2017-09-01T11:03:16.527Z,430
2017-09-01T11:04:26.867Z,435
2017-09-01T11:05:37.177Z,435
2017-09-01T11:06:47.134Z,440
2017-09-01T11:07:57.430Z,450
2017-09-01T11:09:07.663Z,460
2017-09-01T11:10:18.004Z,470
2017-09-01T11:11:27.987Z,460
2017-09-01T11:12:38.281Z,460
2017-09-01T11:13:48.557Z,460
2017-09-01T11:14:58.800Z,460
2017-09-01T11:16:09.091Z,465
2017-09-01T11:17:19.583Z,460
2017-09-01T11:18:29.860Z,450
2017-09-01T11:19:39.724Z,425
2017-09-01T11:20:50.266Z,410
2017-09-01T11:22:00.230Z,395
2017-09-01T11:23:10.534Z,395
2017-09-01T11:24:20.506Z,390
2017-09-01T11:25:30.131Z,390
2017-09-01T11:26:40.677Z,390
2017-09-01T11:27:50.328Z,390
2017-09-01T11:29:00.624Z,395
2017-09-01T11:30:10.608Z,405
2017-09-01T11:31:20.909Z,400
2017-09-01T11:32:31.458Z,405
2017-09-01T11:33:41.746Z,405
2017-09-01T11:34:52.025Z,415
2017-09-01T11:36:02.295Z,415
2017-09-01T11:37:11.892Z,420
2017-09-01T11:38:22.117Z,415
2017-09-01T11:39:32.392Z,405
2017-09-01T11:40:42.679Z,395
2017-09-01T11:41:52.617Z,390
2017-09-01T11:43:02.588Z,390
2017-09-01T11:44:13.123Z,390
2017-09-01T11:45:22.454Z,395
2017-09-01T11:46:32.752Z,405
2017-09-01T11:47:43.026Z,415
2017-09-01T11:48:53.324Z,430
2017-09-01T11:50:03.266Z,430
2017-09-01T11:51:13.241Z,425
2017-09-01T11:52:23.532Z,415
2017-09-01T11:53:33.831Z,410
2017-09-01T11:54:43.478Z,415
2017-09-01T11:55:53.670Z,435
2017-09-01T11:57:03.641Z,440
2017-09-01T11:58:13.936Z,445
2017-09-01T11:59:24.235Z,435
2017-09-01T12:00:34.728Z,420
2017-09-01T12:01:45.306Z,400
2017-09-01T12:02:55.580Z,390
2017-09-01T12:04:05.217Z,380
2017-09-01T12:05:15.504Z,375
2017-09-01T12:06:25.781Z,370
2017-09-01T12:07:35.992Z,370
2017-09-01T12:08:46.290Z,365
2017-09-01T12:09:56.264Z,360
2017-09-01T12:11:06.570Z,355
2017-09-01T12:12:16.851Z,340
2017-09-01T12:13:27.064Z,330
2017-09-01T12:14:36.383Z,305
2017-09-01T12:15:46.615Z,295
2017-09-01T12:16:56.586Z,295
2017-09-01T12:18:06.906Z,295
2017-09-01T12:19:17.435Z,295
2017-09-01T12:20:27.717Z,285
2017-09-01T12:21:37.982Z,280
2017-09-01T12:22:48.268Z,275
2017-09-01T12:23:58.559Z,275
2017-09-01T12:25:09.084Z,275
2017-09-01T12:26:19.374Z,270
2017-09-01T12:27:29.341Z,270
2017-09-01T12:28:38.999Z,280
2017-09-01T12:29:48.967Z,290
2017-09-01T12:30:59.557Z,320
2017-09-01T12:32:09.860Z,345
2017-09-01T12:33:20.139Z,360
2017-09-01T12:34:30.430Z,365
2017-09-01T12:35:40.723Z,360
2017-09-01T12:36:51.244Z,345
2017-09-01T12:38:01.204Z,335
2017-09-01T12:39:11.164Z,330
2017-09-01T12:40:21.468Z,325
2017-09-01T12:41:31.750Z,320
2017-09-01T12:42:42.281Z,315
2017-09-01T12:43:52.557Z,310
2017-09-01T12:45:02.827Z,305
2017-09-01T12:46:13.093Z,305
2017-09-01T12:47:23.077Z,305
2017-09-01T12:48:33.286Z,305
2017-09-01T12:49:43.567Z,305
2017-09-01T12:50:53.533Z,305
2017-09-01T12:52:03.509Z,310
2017-09-01T12:53:13.783Z,320
2017-09-01T12:54:24.343Z,320
2017-09-01T12:55:34.664Z,330
2017-09-01T12:56:44.984Z,335
2017-09-01T12:57:54.960Z,340
2017-09-01T12:59:04.606Z,340
2017-09-01T13:00:14.838Z,345
2017-09-01T13:01:25.320Z,350
2017-09-01T13:02:35.582Z,340
2017-09-01T13:03:45.864Z,325
2017-09-01T13:04:55.839Z,315
2017-09-01T13:06:06.375Z,305
2017-09-01T13:07:16.329Z,300
2017-09-01T13:08:26.277Z,295
2017-09-01T13:09:36.553Z,290
2017-09-01T13:10:46.845Z,280
2017-09-01T13:11:57.371Z,280
2017-09-01T13:13:07.360Z,280
2017-09-01T13:14:17.655Z,285
2017-09-01T13:15:27.627Z,300
2017-09-01T13:16:37.906Z,315
2017-09-01T13:17:48.094Z,335
2017-09-01T13:18:58.083Z,360
2017-09-01T13:20:08.043Z,385
2017-09-01T13:21:18.308Z,415
2017-09-01T13:22:28.595Z,440
2017-09-01T13:23:38.727Z,455
2017-09-01T13:24:49.006Z,465
2017-09-01T13:25:59.510Z,465
2017-09-01T13:27:09.802Z,370
2017-09-01T13:28:20.101Z,460
2017-09-01T13:29:30.625Z,455
2017-09-01T13:30:40.886Z,450
2017-09-01T13:31:50.847Z,450
2017-09-01T13:33:01.145Z,445
2017-09-01T13:34:11.092Z,440
2017-09-01T13:35:21.290Z,430
2017-09-01T13:36:30.623Z,420
2017-09-01T13:37:40.904Z,410
2017-09-01T13:38:50.862Z,405
2017-09-01T13:40:01.138Z,400
2017-09-01T13:41:11.336Z,405
2017-09-01T13:42:21.625Z,400
2017-09-01T13:43:31.885Z,405
2017-09-01T13:44:42.161Z,420
2017-09-01T13:45:52.456Z,420
2017-09-01T13:47:02.352Z,425
2017-09-01T13:48:12.609Z,430
2017-09-01T13:49:22.904Z,425
2017-09-01T13:50:32.872Z,435
2017-09-01T13:51:43.161Z,435
2017-09-01T13:52:53.690Z,450
2017-09-01T13:54:03.962Z,460
2017-09-01T13:55:14.259Z,460
2017-09-01T13:56:24.556Z,445
2017-09-01T13:57:34.836Z,430
2017-09-01T13:58:45.389Z,415
2017-09-01T13:59:55.664Z,395
2017-09-01T14:01:05.927Z,375
2017-09-01T14:02:16.205Z,360
2017-09-01T14:03:26.188Z,355
2017-09-01T14:04:35.773Z,350
2017-09-01T14:05:46.062Z,345
2017-09-01T14:06:56.339Z,335
2017-09-01T14:08:06.619Z,335
2017-09-01T14:09:16.905Z,330
2017-09-01T14:10:27.431Z,330
2017-09-01T14:11:37.718Z,335
2017-09-01T14:12:47.674Z,335
2017-09-01T14:13:57.661Z,325
2017-09-01T14:15:07.945Z,315
2017-09-01T14:16:18.477Z,300
2017-09-01T14:17:28.777Z,285
2017-09-01T14:18:39.052Z,280
2017-09-01T14:19:49.012Z,265
2017-09-01T14:20:59.278Z,255
2017-09-01T14:22:09.836Z,245
2017-09-01T14:23:19.474Z,235
2017-09-01T14:24:29.451Z,230
2017-09-01T14:25:39.763Z,225
2017-09-01T14:26:50.062Z,220
2017-09-01T14:28:00.589Z,220
2017-09-01T14:29:10.342Z,215
2017-09-01T14:30:20.603Z,205
2017-09-01T14:31:30.249Z,200
2017-09-01T14:32:40.211Z,195
2017-09-01T14:33:50.106Z,185
2017-09-01T14:35:00.091Z,180
2017-09-01T14:36:10.043Z,175
2017-09-01T14:37:20.333Z,170
2017-09-01T14:38:30.605Z,170
2017-09-01T14:39:40.829Z,165
2017-09-01T14:40:50.799Z,165
2017-09-01T14:42:01.081Z,165
2017-09-01T14:43:11.400Z,165
2017-09-01T14:44:21.371Z,165
2017-09-01T14:45:31.921Z,165
2017-09-01T14:46:42.200Z,170
2017-09-01T14:47:52.155Z,170
2017-09-01T14:49:02.124Z,170
2017-09-01T14:50:12.397Z,165
2017-09-01T14:51:22.630Z,165
2017-09-01T14:52:32.917Z,160
2017-09-01T14:53:43.211Z,160
2017-09-01T14:54:53.488Z,155
2017-09-01T14:56:03.461Z,150
2017-09-01T14:57:13.357Z,150
2017-09-01T14:58:23.649Z,150
2017-09-01T14:59:33.941Z,145
2017-09-01T15:00:43.915Z,145
2017-09-01T15:01:54.190Z,150
2017-09-01T15:03:04.393Z,150
2017-09-01T15:04:14.673Z,150
2017-09-01T15:05:24.320Z,145
2017-09-01T15:06:34.629Z,145
2017-09-01T15:07:44.910Z,145
2017-09-01T15:08:55.447Z,145
2017-09-01T15:10:05.686Z,145
2017-09-01T15:11:15.656Z,145
2017-09-01T15:12:25.299Z,145
2017-09-01T15:13:35.274Z,145
2017-09-01T15:14:45.509Z,145
2017-09-01T15:15:55.477Z,140
2017-09-01T15:17:05.149Z,140
2017-09-01T15:18:15.428Z,140
2017-09-01T15:19:25.678Z,140
2017-09-01T15:20:36.220Z,140
2017-09-01T15:21:46.517Z,145
2017-09-01T15:22:56.780Z,145
2017-09-01T15:24:07.056Z,150
2017-09-01T15:25:17.009Z,145
2017-09-01T15:26:27.206Z,145
2017-09-01T15:27:37.132Z,145
2017-09-01T15:28:46.754Z,145
2017-09-01T15:29:57.032Z,145
2017-09-01T15:31:07.321Z,145
2017-09-01T15:32:17.542Z,145
2017-09-01T15:33:27.830Z,145
2017-09-01T15:34:37.809Z,145
2017-09-01T15:35:48.112Z,150
2017-09-01T15:36:58.369Z,150
2017-09-01T15:38:08.912Z,155
2017-09-01T15:39:19.231Z,160
2017-09-01T15:40:29.192Z,165
2017-09-01T15:41:39.166Z,170
2017-09-01T15:42:48.825Z,170
2017-09-01T15:43:59.365Z,170
2017-09-01T15:45:09.644Z,170
2017-09-01T15:46:19.691Z,170
2017-09-01T15:47:29.668Z,170
2017-09-01T15:48:39.333Z,170
2017-09-01T15:49:49.559Z,170
2017-09-01T15:50:59.547Z,170
2017-09-01T15:52:09.530Z,170
2017-09-01T15:53:19.816Z,170
2017-09-01T15:54:30.117Z,170
2017-09-01T15:55:40.422Z,165
2017-09-01T15:56:50.398Z,165
2017-09-01T15:58:00.367Z,160
2017-09-01T15:59:10.331Z,160
2017-09-01T16:00:20.629Z,160
2017-09-01T16:01:30.849Z,155
2017-09-01T16:02:40.851Z,155
2017-09-01T16:03:51.162Z,150
2017-09-01T16:05:01.465Z,145
2017-09-01T16:06:11.748Z,140
2017-09-01T16:07:21.973Z,140
2017-09-01T16:08:32.259Z,135
2017-09-01T16:09:42.557Z,135
2017-09-01T16:10:52.521Z,130
2017-09-01T16:12:02.792Z,125
2017-09-01T16:13:13.313Z,120
2017-09-01T16:14:23.596Z,115
2017-09-01T16:15:33.915Z,110
2017-09-01T16:16:44.170Z,110
2017-09-01T16:17:54.457Z,110
2017-09-01T16:19:04.969Z,110
2017-09-01T16:20:14.635Z,110
2017-09-01T16:21:24.941Z,105
2017-09-01T16:22:34.879Z,105